Jersey City, New Jersey
Current Conditions -  °F | °C
As of 8:51 AM on Thursday 27 Nov 2014 (Local Time) from KNYC Reporting Station
Overcast Overcast  
Wind Chill: 33°   Ceiling: 5000
Heat Index: 37°   Visibility: 10mi
Dew Point: 30°   Wind: 5mph
Humidity: 76%   Direction: NA
Pressure: 30.01"   Gusts: NA
Location:  40.72°N, 74.04°W
Report Text: KNYC 271351Z AUTO VRB04KT 10SM OVC050 03/M01 A3001 RMK AO2 SLP155 T00281011 $
Loading
Personal Weather Stations






























Interactive Weather Map New forecast layout! Learn more

10-Day Weather Forecast

Advertisements
Track Severe Weather on mobile